sensor_id;sensor_type;location;lat;lon;timestamp;temperature;humidity
7216;DHT22;3649;48.798;9.798;2022-11-06T00:01:11;10.70;99.90
7216;DHT22;3649;48.798;9.798;2022-11-06T00:03:38;10.70;99.90
7216;DHT22;3649;48.798;9.798;2022-11-06T00:06:09;10.60;99.90
7216;DHT22;3649;48.798;9.798;2022-11-06T00:08:55;10.60;99.90
7216;DHT22;3649;48.798;9.798;2022-11-06T00:11:22;10.50;99.90
7216;DHT22;3649;48.798;9.798;2022-11-06T00:13:49;10.50;99.90
7216;DHT22;3649;48.798;9.798;2022-11-06T00:16:18;10.60;99.90
7216;DHT22;3649;48.798;9.798;2022-11-06T00:18:46;11.10;99.90
7216;DHT22;3649;48.798;9.798;2022-11-06T00:21:18;10.50;99.90
7216;DHT22;3649;48.798;9.798;2022-11-06T00:23:46;10.50;99.90
7216;DHT22;3649;48.798;9.798;2022-11-06T00:26:15;10.40;99.90
7216;DHT22;3649;48.798;9.798;2022-11-06T00:28:42;10.40;99.90
7216;DHT22;3649;48.798;9.798;2022-11-06T00:31:17;10.40;99.90
7216;DHT22;3649;48.798;9.798;2022-11-06T00:33:44;10.40;99.90
7216;DHT22;3649;48.798;9.798;2022-11-06T00:36:20;10.40;99.90
7216;DHT22;3649;48.798;9.798;2022-11-06T00:38:49;12.00;99.90
7216;DHT22;3649;48.798;9.798;2022-11-06T00:41:16;10.30;99.90
7216;DHT22;3649;48.798;9.798;2022-11-06T00:43:51;10.30;99.90
7216;DHT22;3649;48.798;9.798;2022-11-06T00:46:19;10.20;99.90
7216;DHT22;3649;48.798;9.798;2022-11-06T00:48:46;10.20;99.90
7216;DHT22;3649;48.798;9.798;2022-11-06T00:51:18;10.10;99.90
7216;DHT22;3649;48.798;9.798;2022-11-06T00:53:46;10.10;99.90
7216;DHT22;3649;48.798;9.798;2022-11-06T00:56:18;10.10;99.90
7216;DHT22;3649;48.798;9.798;2022-11-06T00:58:46;10.00;99.90
7216;DHT22;3649;48.798;9.798;2022-11-06T01:03:57;10.00;99.90
7216;DHT22;3649;48.798;9.798;2022-11-06T01:06:27;10.00;99.90
7216;DHT22;3649;48.798;9.798;2022-11-06T01:08:55;10.00;99.90
7216;DHT22;3649;48.798;9.798;2022-11-06T01:11:37;10.00;99.90
7216;DHT22;3649;48.798;9.798;2022-11-06T01:14:24;10.00;99.90
7216;DHT22;3649;48.798;9.798;2022-11-06T01:16:51;10.00;99.90
7216;DHT22;3649;48.798;9.798;2022-11-06T01:19:19;10.00;99.90
7216;DHT22;3649;48.798;9.798;2022-11-06T01:21:48;10.00;99.90
7216;DHT22;3649;48.798;9.798;2022-11-06T01:24:20;10.10;99.90
7216;DHT22;3649;48.798;9.798;2022-11-06T01:26:47;10.10;99.90
7216;DHT22;3649;48.798;9.798;2022-11-06T01:29:34;10.20;99.90
7216;DHT22;3649;48.798;9.798;2022-11-06T01:32:01;10.10;99.90
7216;DHT22;3649;48.798;9.798;2022-11-06T01:34:28;10.10;99.90
7216;DHT22;3649;48.798;9.798;2022-11-06T01:36:55;10.10;99.90
7216;DHT22;3649;48.798;9.798;2022-11-06T01:39:21;10.10;99.90
7216;DHT22;3649;48.798;9.798;2022-11-06T01:41:50;10.00;99.90
7216;DHT22;3649;48.798;9.798;2022-11-06T01:47:26;10.00;99.90
7216;DHT22;3649;48.798;9.798;2022-11-06T01:49:56;9.80;99.90
7216;DHT22;3649;48.798;9.798;2022-11-06T01:52:26;9.80;99.90
7216;DHT22;3649;48.798;9.798;2022-11-06T01:54:57;9.90;99.90
7216;DHT22;3649;48.798;9.798;2022-11-06T01:57:26;9.90;99.90
7216;DHT22;3649;48.798;9.798;2022-11-06T01:59:53;9.80;99.90
7216;DHT22;3649;48.798;9.798;2022-11-06T02:02:21;9.80;99.90
7216;DHT22;3649;48.798;9.798;2022-11-06T02:04:48;9.70;99.90
7216;DHT22;3649;48.798;9.798;2022-11-06T02:07:17;9.70;99.90
7216;DHT22;3649;48.798;9.798;2022-11-06T02:09:44;9.70;99.90
7216;DHT22;3649;48.798;9.798;2022-11-06T02:12:31;9.60;99.90
7216;DHT22;3649;48.798;9.798;2022-11-06T02:15:07;9.60;99.90
7216;DHT22;3649;48.798;9.798;2022-11-06T02:20:45;9.60;99.90
7216;DHT22;3649;48.798;9.798;2022-11-06T02:23:48;9.70;99.90
7216;DHT22;3649;48.798;9.798;2022-11-06T02:29:09;9.60;99.90
7216;DHT22;3649;48.798;9.798;2022-11-06T02:31:42;9.60;99.90
7216;DHT22;3649;48.798;9.798;2022-11-06T02:34:12;9.60;99.90
7216;DHT22;3649;48.798;9.798;2022-11-06T02:36:49;9.60;99.90
7216;DHT22;3649;48.798;9.798;2022-11-06T02:39:19;9.60;99.90
7216;DHT22;3649;48.798;9.798;2022-11-06T02:41:48;9.70;99.90
7216;DHT22;3649;48.798;9.798;2022-11-06T02:44:20;9.70;99.90
7216;DHT22;3649;48.798;9.798;2022-11-06T02:47:01;9.70;99.90
7216;DHT22;3649;48.798;9.798;2022-11-06T02:49:53;9.60;99.90
7216;DHT22;3649;48.798;9.798;2022-11-06T02:52:25;9.50;99.90
7216;DHT22;3649;48.798;9.798;2022-11-06T02:55:03;9.50;99.90
7216;DHT22;3649;48.798;9.798;2022-11-06T02:57:36;9.40;99.90
7216;DHT22;3649;48.798;9.798;2022-11-06T03:00:12;9.30;99.90
7216;DHT22;3649;48.798;9.798;2022-11-06T03:02:46;9.30;99.90
7216;DHT22;3649;48.798;9.798;2022-11-06T03:05:33;9.30;99.90
7216;DHT22;3649;48.798;9.798;2022-11-06T03:08:16;9.30;99.90
7216;DHT22;3649;48.798;9.798;2022-11-06T03:11:26;9.30;99.90
7216;DHT22;3649;48.798;9.798;2022-11-06T03:16:51;9.40;99.90
7216;DHT22;3649;48.798;9.798;2022-11-06T03:19:29;9.40;99.90
7216;DHT22;3649;48.798;9.798;2022-11-06T03:22:15;9.40;99.90
7216;DHT22;3649;48.798;9.798;2022-11-06T03:25:21;9.40;99.90
7216;DHT22;3649;48.798;9.798;2022-11-06T03:30:21;9.40;99.90
7216;DHT22;3649;48.798;9.798;2022-11-06T03:32:50;9.40;99.90
7216;DHT22;3649;48.798;9.798;2022-11-06T03:35:27;9.30;99.90
7216;DHT22;3649;48.798;9.798;2022-11-06T03:40:37;9.30;99.90
7216;DHT22;3649;48.798;9.798;2022-11-06T03:43:07;9.20;99.90
7216;DHT22;3649;48.798;9.798;2022-11-06T03:45:39;9.10;99.90
7216;DHT22;3649;48.798;9.798;2022-11-06T03:48:15;9.00;99.90
7216;DHT22;3649;48.798;9.798;2022-11-06T03:51:04;9.00;99.90
7216;DHT22;3649;48.798;9.798;2022-11-06T03:53:45;9.00;99.90
7216;DHT22;3649;48.798;9.798;2022-11-06T03:56:22;9.00;99.90
7216;DHT22;3649;48.798;9.798;2022-11-06T03:58:50;9.10;99.90
7216;DHT22;3649;48.798;9.798;2022-11-06T04:01:22;9.00;99.90
7216;DHT22;3649;48.798;9.798;2022-11-06T04:03:55;9.00;99.90
7216;DHT22;3649;48.798;9.798;2022-11-06T04:06:39;9.00;99.90
7216;DHT22;3649;48.798;9.798;2022-11-06T04:09:08;9.00;99.90
7216;DHT22;3649;48.798;9.798;2022-11-06T04:11:56;9.10;99.90
7216;DHT22;3649;48.798;9.798;2022-11-06T04:14:45;9.10;99.90
7216;DHT22;3649;48.798;9.798;2022-11-06T04:17:14;9.00;99.90
7216;DHT22;3649;48.798;9.798;2022-11-06T04:19:50;9.00;99.90
7216;DHT22;3649;48.798;9.798;2022-11-06T04:30:34;9.00;99.90
7216;DHT22;3649;48.798;9.798;2022-11-06T04:38:09;8.90;99.90
7216;DHT22;3649;48.798;9.798;2022-11-06T04:45:58;8.80;99.90
7216;DHT22;3649;48.798;9.798;2022-11-06T04:48:26;8.70;99.90
7216;DHT22;3649;48.798;9.798;2022-11-06T04:50:57;8.70;99.90
7216;DHT22;3649;48.798;9.798;2022-11-06T04:53:25;8.70;99.90
7216;DHT22;3649;48.798;9.798;2022-11-06T04:55:55;8.60;99.90
7216;DHT22;3649;48.798;9.798;2022-11-06T04:58:25;8.70;99.90
7216;DHT22;3649;48.798;9.798;2022-11-06T05:00:52;8.60;99.90
7216;DHT22;3649;48.798;9.798;2022-11-06T05:03:19;8.70;99.90
7216;DHT22;3649;48.798;9.798;2022-11-06T05:05:46;8.70;99.90
7216;DHT22;3649;48.798;9.798;2022-11-06T05:08:17;8.70;99.90
7216;DHT22;3649;48.798;9.798;2022-11-06T05:10:45;8.70;99.90
7216;DHT22;3649;48.798;9.798;2022-11-06T05:13:13;8.70;99.90
7216;DHT22;3649;48.798;9.798;2022-11-06T05:15:41;8.70;99.90
7216;DHT22;3649;48.798;9.798;2022-11-06T05:18:08;9.70;99.90
7216;DHT22;3649;48.798;9.798;2022-11-06T05:20:35;8.70;99.90
7216;DHT22;3649;48.798;9.798;2022-11-06T05:23:01;8.70;99.90
7216;DHT22;3649;48.798;9.798;2022-11-06T05:25:34;8.70;99.90
7216;DHT22;3649;48.798;9.798;2022-11-06T05:28:02;8.70;99.90
7216;DHT22;3649;48.798;9.798;2022-11-06T05:30:31;8.70;99.90
7216;DHT22;3649;48.798;9.798;2022-11-06T05:32:58;8.60;99.90
7216;DHT22;3649;48.798;9.798;2022-11-06T05:35:24;8.70;99.90
7216;DHT22;3649;48.798;9.798;2022-11-06T05:38:00;8.70;99.90
7216;DHT22;3649;48.798;9.798;2022-11-06T05:40:27;8.70;99.90
7216;DHT22;3649;48.798;9.798;2022-11-06T05:42:54;8.80;99.90
7216;DHT22;3649;48.798;9.798;2022-11-06T05:45:21;8.70;99.90
7216;DHT22;3649;48.798;9.798;2022-11-06T05:47:48;8.80;99.90
7216;DHT22;3649;48.798;9.798;2022-11-06T05:50:15;8.80;99.90
7216;DHT22;3649;48.798;9.798;2022-11-06T05:52:44;8.70;99.90
7216;DHT22;3649;48.798;9.798;2022-11-06T05:55:11;8.70;99.90
7216;DHT22;3649;48.798;9.798;2022-11-06T05:57:41;8.70;99.90
7216;DHT22;3649;48.798;9.798;2022-11-06T06:00:08;8.70;99.90
7216;DHT22;3649;48.798;9.798;2022-11-06T06:02:36;8.70;99.90
7216;DHT22;3649;48.798;9.798;2022-11-06T06:05:05;8.80;99.90
7216;DHT22;3649;48.798;9.798;2022-11-06T06:07:32;8.80;99.90
7216;DHT22;3649;48.798;9.798;2022-11-06T06:09:59;8.90;99.90
7216;DHT22;3649;48.798;9.798;2022-11-06T06:12:26;8.90;99.90
7216;DHT22;3649;48.798;9.798;2022-11-06T06:14:53;8.80;99.90
7216;DHT22;3649;48.798;9.798;2022-11-06T06:17:20;8.90;99.90
7216;DHT22;3649;48.798;9.798;2022-11-06T06:19:47;8.90;99.90
7216;DHT22;3649;48.798;9.798;2022-11-06T06:22:14;8.80;99.90
7216;DHT22;3649;48.798;9.798;2022-11-06T06:24:41;8.90;99.90
7216;DHT22;3649;48.798;9.798;2022-11-06T06:27:08;8.80;99.90
7216;DHT22;3649;48.798;9.798;2022-11-06T06:29:35;8.80;99.90
7216;DHT22;3649;48.798;9.798;2022-11-06T06:32:05;8.80;99.90
7216;DHT22;3649;48.798;9.798;2022-11-06T06:34:32;8.60;99.90
7216;DHT22;3649;48.798;9.798;2022-11-06T06:36:59;8.60;99.90
7216;DHT22;3649;48.798;9.798;2022-11-06T06:39:26;8.70;99.90
7216;DHT22;3649;48.798;9.798;2022-11-06T06:41:53;8.60;99.90
7216;DHT22;3649;48.798;9.798;2022-11-06T06:44:20;8.50;99.90
7216;DHT22;3649;48.798;9.798;2022-11-06T06:46:46;8.50;99.90
7216;DHT22;3649;48.798;9.798;2022-11-06T06:49:13;9.80;99.90
7216;DHT22;3649;48.798;9.798;2022-11-06T06:51:40;8.90;99.90
7216;DHT22;3649;48.798;9.798;2022-11-06T06:54:09;9.30;99.90
7216;DHT22;3649;48.798;9.798;2022-11-06T06:56:36;8.80;99.90
7216;DHT22;3649;48.798;9.798;2022-11-06T06:59:03;8.80;99.90
7216;DHT22;3649;48.798;9.798;2022-11-06T07:01:30;8.80;99.90
7216;DHT22;3649;48.798;9.798;2022-11-06T07:03:57;9.30;99.90
7216;DHT22;3649;48.798;9.798;2022-11-06T07:06:30;8.70;99.90
7216;DHT22;3649;48.798;9.798;2022-11-06T07:08:57;9.40;99.90
7216;DHT22;3649;48.798;9.798;2022-11-06T07:11:23;8.80;99.90
7216;DHT22;3649;48.798;9.798;2022-11-06T07:13:50;8.80;99.90
7216;DHT22;3649;48.798;9.798;2022-11-06T07:16:17;9.20;99.90
7216;DHT22;3649;48.798;9.798;2022-11-06T07:18:44;8.90;99.90
7216;DHT22;3649;48.798;9.798;2022-11-06T07:21:11;8.90;99.90
7216;DHT22;3649;48.798;9.798;2022-11-06T07:23:38;9.00;99.90
7216;DHT22;3649;48.798;9.798;2022-11-06T07:26:06;9.00;99.90
7216;DHT22;3649;48.798;9.798;2022-11-06T07:28:34;9.10;99.90
7216;DHT22;3649;48.798;9.798;2022-11-06T07:31:04;9.10;99.90
7216;DHT22;3649;48.798;9.798;2022-11-06T07:33:33;9.20;99.90
7216;DHT22;3649;48.798;9.798;2022-11-06T07:36:26;10.20;99.90
7216;DHT22;3649;48.798;9.798;2022-11-06T07:38:56;9.30;99.90
7216;DHT22;3649;48.798;9.798;2022-11-06T07:41:23;9.30;99.90
7216;DHT22;3649;48.798;9.798;2022-11-06T07:43:50;9.30;99.90
7216;DHT22;3649;48.798;9.798;2022-11-06T07:46:17;10.10;99.90
7216;DHT22;3649;48.798;9.798;2022-11-06T07:48:44;9.30;99.90
7216;DHT22;3649;48.798;9.798;2022-11-06T07:51:11;9.40;99.90
7216;DHT22;3649;48.798;9.798;2022-11-06T07:53:38;9.40;99.90
7216;DHT22;3649;48.798;9.798;2022-11-06T07:56:05;9.50;99.90
7216;DHT22;3649;48.798;9.798;2022-11-06T07:58:34;9.60;99.90
7216;DHT22;3649;48.798;9.798;2022-11-06T08:01:00;9.70;99.90
7216;DHT22;3649;48.798;9.798;2022-11-06T08:03:28;9.80;99.90
7216;DHT22;3649;48.798;9.798;2022-11-06T08:05:58;9.90;99.90
7216;DHT22;3649;48.798;9.798;2022-11-06T08:08:26;9.80;99.90
7216;DHT22;3649;48.798;9.798;2022-11-06T08:10:53;9.90;99.90
7216;DHT22;3649;48.798;9.798;2022-11-06T08:13:20;9.70;99.90
7216;DHT22;3649;48.798;9.798;2022-11-06T08:15:47;9.60;99.90
7216;DHT22;3649;48.798;9.798;2022-11-06T08:18:14;9.70;99.90
7216;DHT22;3649;48.798;9.798;2022-11-06T08:20:41;9.80;99.90
7216;DHT22;3649;48.798;9.798;2022-11-06T08:23:11;10.00;99.90
7216;DHT22;3649;48.798;9.798;2022-11-06T08:25:39;10.10;99.90
7216;DHT22;3649;48.798;9.798;2022-11-06T08:28:05;10.10;99.90
7216;DHT22;3649;48.798;9.798;2022-11-06T08:30:32;10.30;99.90
7216;DHT22;3649;48.798;9.798;2022-11-06T08:33:01;11.10;99.90
7216;DHT22;3649;48.798;9.798;2022-11-06T08:35:28;10.50;99.90
7216;DHT22;3649;48.798;9.798;2022-11-06T08:37:55;10.50;99.90
7216;DHT22;3649;48.798;9.798;2022-11-06T08:40:22;10.80;99.90
7216;DHT22;3649;48.798;9.798;2022-11-06T08:43:03;10.60;99.90
7216;DHT22;3649;48.798;9.798;2022-11-06T08:45:31;10.70;99.90
7216;DHT22;3649;48.798;9.798;2022-11-06T08:48:02;10.70;99.90
7216;DHT22;3649;48.798;9.798;2022-11-06T08:50:30;10.70;99.90
7216;DHT22;3649;48.798;9.798;2022-11-06T08:53:01;10.80;99.90
7216;DHT22;3649;48.798;9.798;2022-11-06T08:55:33;10.80;99.90
7216;DHT22;3649;48.798;9.798;2022-11-06T08:58:00;10.80;99.90
7216;DHT22;3649;48.798;9.798;2022-11-06T09:00:28;12.10;99.90
7216;DHT22;3649;48.798;9.798;2022-11-06T09:02:59;11.10;99.90
7216;DHT22;3649;48.798;9.798;2022-11-06T09:05:27;11.20;99.90
7216;DHT22;3649;48.798;9.798;2022-11-06T09:07:56;11.20;99.90
7216;DHT22;3649;48.798;9.798;2022-11-06T09:10:24;11.20;99.90
7216;DHT22;3649;48.798;9.798;2022-11-06T09:12:52;11.30;99.90
7216;DHT22;3649;48.798;9.798;2022-11-06T09:15:19;11.40;99.90
7216;DHT22;3649;48.798;9.798;2022-11-06T09:17:47;11.40;99.90
7216;DHT22;3649;48.798;9.798;2022-11-06T09:20:16;11.50;99.90
7216;DHT22;3649;48.798;9.798;2022-11-06T09:22:45;11.50;99.90
7216;DHT22;3649;48.798;9.798;2022-11-06T09:25:12;11.60;99.90
7216;DHT22;3649;48.798;9.798;2022-11-06T09:27:50;11.60;99.90
7216;DHT22;3649;48.798;9.798;2022-11-06T09:30:26;11.70;99.90
7216;DHT22;3649;48.798;9.798;2022-11-06T09:32:55;11.80;99.90
7216;DHT22;3649;48.798;9.798;2022-11-06T09:35:24;11.80;99.90
7216;DHT22;3649;48.798;9.798;2022-11-06T09:37:51;11.80;99.90
7216;DHT22;3649;48.798;9.798;2022-11-06T09:40:31;12.10;99.90
7216;DHT22;3649;48.798;9.798;2022-11-06T09:46:21;12.10;99.90
7216;DHT22;3649;48.798;9.798;2022-11-06T09:48:57;12.10;99.90
7216;DHT22;3649;48.798;9.798;2022-11-06T09:51:37;12.30;99.90
7216;DHT22;3649;48.798;9.798;2022-11-06T09:54:37;12.30;99.90
7216;DHT22;3649;48.798;9.798;2022-11-06T09:57:18;12.40;99.90
7216;DHT22;3649;48.798;9.798;2022-11-06T09:59:47;12.40;99.90
7216;DHT22;3649;48.798;9.798;2022-11-06T10:02:44;13.90;99.90
7216;DHT22;3649;48.798;9.798;2022-11-06T10:05:14;12.40;99.90
7216;DHT22;3649;48.798;9.798;2022-11-06T10:07:44;12.50;99.90
7216;DHT22;3649;48.798;9.798;2022-11-06T10:10:16;12.50;99.90
7216;DHT22;3649;48.798;9.798;2022-11-06T10:13:21;12.40;99.90
7216;DHT22;3649;48.798;9.798;2022-11-06T10:18:40;12.70;99.90
7216;DHT22;3649;48.798;9.798;2022-11-06T10:34:46;12.70;99.90
7216;DHT22;3649;48.798;9.798;2022-11-06T10:37:27;12.80;99.90
7216;DHT22;3649;48.798;9.798;2022-11-06T10:39:56;12.90;99.90
7216;DHT22;3649;48.798;9.798;2022-11-06T10:42:31;12.80;99.90
7216;DHT22;3649;48.798;9.798;2022-11-06T10:45:14;12.90;99.90
7216;DHT22;3649;48.798;9.798;2022-11-06T10:47:48;13.00;99.90
7216;DHT22;3649;48.798;9.798;2022-11-06T10:50:17;13.00;99.90
7216;DHT22;3649;48.798;9.798;2022-11-06T10:55:40;13.00;99.90
7216;DHT22;3649;48.798;9.798;2022-11-06T10:58:20;13.00;99.90
7216;DHT22;3649;48.798;9.798;2022-11-06T11:00:47;13.00;99.90
7216;DHT22;3649;48.798;9.798;2022-11-06T11:03:27;13.10;99.90
7216;DHT22;3649;48.798;9.798;2022-11-06T11:05:55;12.90;99.90
7216;DHT22;3649;48.798;9.798;2022-11-06T11:08:42;12.90;99.90
7216;DHT22;3649;48.798;9.798;2022-11-06T11:13:40;12.90;99.90
7216;DHT22;3649;48.798;9.798;2022-11-06T11:16:17;13.00;99.90
7216;DHT22;3649;48.798;9.798;2022-11-06T11:18:44;12.90;99.90
7216;DHT22;3649;48.798;9.798;2022-11-06T11:23:45;12.90;99.90
7216;DHT22;3649;48.798;9.798;2022-11-06T11:26:24;12.90;99.90
7216;DHT22;3649;48.798;9.798;2022-11-06T11:29:02;12.70;99.90
7216;DHT22;3649;48.798;9.798;2022-11-06T11:31:37;12.80;99.90
7216;DHT22;3649;48.798;9.798;2022-11-06T11:34:16;12.80;99.90
7216;DHT22;3649;48.798;9.798;2022-11-06T11:36:53;12.70;99.90
7216;DHT22;3649;48.798;9.798;2022-11-06T11:39:24;12.80;99.90
7216;DHT22;3649;48.798;9.798;2022-11-06T11:41:53;12.90;99.90
7216;DHT22;3649;48.798;9.798;2022-11-06T11:44:20;12.80;99.90
7216;DHT22;3649;48.798;9.798;2022-11-06T11:46:49;12.90;99.90
7216;DHT22;3649;48.798;9.798;2022-11-06T11:49:31;12.90;99.90
7216;DHT22;3649;48.798;9.798;2022-11-06T11:52:10;12.90;99.90
7216;DHT22;3649;48.798;9.798;2022-11-06T11:54:38;12.90;99.90
7216;DHT22;3649;48.798;9.798;2022-11-06T11:57:09;13.00;99.90
7216;DHT22;3649;48.798;9.798;2022-11-06T11:59:51;12.90;99.90
7216;DHT22;3649;48.798;9.798;2022-11-06T12:02:47;12.80;99.90
7216;DHT22;3649;48.798;9.798;2022-11-06T12:05:17;12.80;99.90
7216;DHT22;3649;48.798;9.798;2022-11-06T12:07:49;12.80;99.90
7216;DHT22;3649;48.798;9.798;2022-11-06T12:12:50;12.70;99.90
7216;DHT22;3649;48.798;9.798;2022-11-06T12:18:05;12.60;99.90
7216;DHT22;3649;48.798;9.798;2022-11-06T12:20:51;12.70;99.90
7216;DHT22;3649;48.798;9.798;2022-11-06T12:23:30;12.60;99.90
7216;DHT22;3649;48.798;9.798;2022-11-06T12:27:10;12.70;99.90
7216;DHT22;3649;48.798;9.798;2022-11-06T12:29:10;12.70;99.90
7216;DHT22;3649;48.798;9.798;2022-11-06T12:34:18;12.70;99.90
7216;DHT22;3649;48.798;9.798;2022-11-06T12:37:01;12.70;99.90
7216;DHT22;3649;48.798;9.798;2022-11-06T12:39:32;12.70;99.90
7216;DHT22;3649;48.798;9.798;2022-11-06T12:42:01;12.80;99.90
7216;DHT22;3649;48.798;9.798;2022-11-06T12:44:29;12.80;99.90
7216;DHT22;3649;48.798;9.798;2022-11-06T12:47:19;12.80;99.90
7216;DHT22;3649;48.798;9.798;2022-11-06T13:01:08;12.90;99.90
7216;DHT22;3649;48.798;9.798;2022-11-06T13:11:39;13.00;99.90
7216;DHT22;3649;48.798;9.798;2022-11-06T13:14:31;13.00;99.90
7216;DHT22;3649;48.798;9.798;2022-11-06T13:17:04;13.00;99.90
7216;DHT22;3649;48.798;9.798;2022-11-06T13:19:52;13.00;99.90
7216;DHT22;3649;48.798;9.798;2022-11-06T13:22:33;13.00;99.90
7216;DHT22;3649;48.798;9.798;2022-11-06T13:27:55;13.10;99.90
7216;DHT22;3649;48.798;9.798;2022-11-06T13:30:23;13.10;99.90
7216;DHT22;3649;48.798;9.798;2022-11-06T13:35:20;13.10;99.90
7216;DHT22;3649;48.798;9.798;2022-11-06T13:37:49;13.10;99.90
7216;DHT22;3649;48.798;9.798;2022-11-06T13:40:41;13.10;99.90
7216;DHT22;3649;48.798;9.798;2022-11-06T13:43:18;13.00;99.90
7216;DHT22;3649;48.798;9.798;2022-11-06T13:51:53;12.90;99.90
7216;DHT22;3649;48.798;9.798;2022-11-06T14:00:17;12.80;99.90
7216;DHT22;3649;48.798;9.798;2022-11-06T14:05:55;12.70;99.90
7216;DHT22;3649;48.798;9.798;2022-11-06T14:08:31;12.80;99.90
7216;DHT22;3649;48.798;9.798;2022-11-06T14:11:02;12.80;99.90
7216;DHT22;3649;48.798;9.798;2022-11-06T14:13:34;12.80;99.90
7216;DHT22;3649;48.798;9.798;2022-11-06T14:16:25;12.80;99.90
7216;DHT22;3649;48.798;9.798;2022-11-06T14:18:59;12.80;99.90
7216;DHT22;3649;48.798;9.798;2022-11-06T14:26:48;12.80;99.90
7216;DHT22;3649;48.798;9.798;2022-11-06T14:34:49;12.80;99.90
7216;DHT22;3649;48.798;9.798;2022-11-06T14:42:35;12.90;99.90
7216;DHT22;3649;48.798;9.798;2022-11-06T14:45:07;12.90;99.90
7216;DHT22;3649;48.798;9.798;2022-11-06T14:47:53;13.00;99.90
7216;DHT22;3649;48.798;9.798;2022-11-06T14:53:02;12.90;99.90
7216;DHT22;3649;48.798;9.798;2022-11-06T14:58:23;13.00;99.90
7216;DHT22;3649;48.798;9.798;2022-11-06T15:01:14;12.90;99.90
7216;DHT22;3649;48.798;9.798;2022-11-06T15:03:51;12.90;99.90
7216;DHT22;3649;48.798;9.798;2022-11-06T15:16:49;13.00;99.90
7216;DHT22;3649;48.798;9.798;2022-11-06T15:21:52;12.90;99.90
7216;DHT22;3649;48.798;9.798;2022-11-06T15:24:27;12.90;99.90
7216;DHT22;3649;48.798;9.798;2022-11-06T15:26:57;12.80;99.90
7216;DHT22;3649;48.798;9.798;2022-11-06T15:29:27;13.20;99.90
7216;DHT22;3649;48.798;9.798;2022-11-06T15:32:02;13.80;99.90
7216;DHT22;3649;48.798;9.798;2022-11-06T15:34:32;13.00;99.90
7216;DHT22;3649;48.798;9.798;2022-11-06T15:39:59;12.90;99.90
7216;DHT22;3649;48.798;9.798;2022-11-06T15:42:29;12.90;99.90
7216;DHT22;3649;48.798;9.798;2022-11-06T15:47:38;12.80;99.90
7216;DHT22;3649;48.798;9.798;2022-11-06T15:50:16;12.80;99.90
7216;DHT22;3649;48.798;9.798;2022-11-06T15:52:44;12.90;99.90
7216;DHT22;3649;48.798;9.798;2022-11-06T15:55:12;12.70;99.90
7216;DHT22;3649;48.798;9.798;2022-11-06T15:57:49;12.60;99.90
7216;DHT22;3649;48.798;9.798;2022-11-06T16:00:24;12.60;99.90
7216;DHT22;3649;48.798;9.798;2022-11-06T16:02:59;12.70;99.90
7216;DHT22;3649;48.798;9.798;2022-11-06T16:05:28;12.70;99.90
7216;DHT22;3649;48.798;9.798;2022-11-06T16:07:56;12.70;99.90
7216;DHT22;3649;48.798;9.798;2022-11-06T16:10:25;12.70;99.90
7216;DHT22;3649;48.798;9.798;2022-11-06T16:12:53;12.80;99.90
7216;DHT22;3649;48.798;9.798;2022-11-06T16:26:10;12.70;99.90
7216;DHT22;3649;48.798;9.798;2022-11-06T16:28:43;12.70;99.90
7216;DHT22;3649;48.798;9.798;2022-11-06T16:31:16;12.60;99.90
7216;DHT22;3649;48.798;9.798;2022-11-06T16:37:02;12.40;99.90
7216;DHT22;3649;48.798;9.798;2022-11-06T16:45:28;12.40;99.90
7216;DHT22;3649;48.798;9.798;2022-11-06T16:48:38;12.80;99.90
7216;DHT22;3649;48.798;9.798;2022-11-06T16:51:07;12.30;99.90
7216;DHT22;3649;48.798;9.798;2022-11-06T16:53:57;12.30;99.90
7216;DHT22;3649;48.798;9.798;2022-11-06T16:56:30;12.30;99.90
7216;DHT22;3649;48.798;9.798;2022-11-06T16:59:01;12.30;99.90
7216;DHT22;3649;48.798;9.798;2022-11-06T17:01:42;12.40;99.90
7216;DHT22;3649;48.798;9.798;2022-11-06T17:04:20;12.20;99.90
7216;DHT22;3649;48.798;9.798;2022-11-06T17:06:49;12.20;99.90
7216;DHT22;3649;48.798;9.798;2022-11-06T17:09:25;12.20;99.90
7216;DHT22;3649;48.798;9.798;2022-11-06T17:11:55;12.20;99.90
7216;DHT22;3649;48.798;9.798;2022-11-06T17:14:23;12.20;99.90
7216;DHT22;3649;48.798;9.798;2022-11-06T17:16:51;12.30;99.90
7216;DHT22;3649;48.798;9.798;2022-11-06T17:19:20;12.40;99.90
7216;DHT22;3649;48.798;9.798;2022-11-06T17:21:47;12.40;99.90
7216;DHT22;3649;48.798;9.798;2022-11-06T17:24:14;12.40;99.90
7216;DHT22;3649;48.798;9.798;2022-11-06T17:27:01;12.50;99.90
7216;DHT22;3649;48.798;9.798;2022-11-06T17:29:28;12.60;99.90
7216;DHT22;3649;48.798;9.798;2022-11-06T17:31:55;12.50;99.90
7216;DHT22;3649;48.798;9.798;2022-11-06T17:34:22;12.60;99.90
7216;DHT22;3649;48.798;9.798;2022-11-06T17:36:49;12.60;99.90
7216;DHT22;3649;48.798;9.798;2022-11-06T17:39:16;12.60;99.90
7216;DHT22;3649;48.798;9.798;2022-11-06T17:41:42;12.70;99.90
7216;DHT22;3649;48.798;9.798;2022-11-06T17:44:11;12.70;99.90
7216;DHT22;3649;48.798;9.798;2022-11-06T17:46:43;12.80;99.90
7216;DHT22;3649;48.798;9.798;2022-11-06T17:49:11;12.70;99.90
7216;DHT22;3649;48.798;9.798;2022-11-06T17:51:44;12.80;99.90
7216;DHT22;3649;48.798;9.798;2022-11-06T17:54:26;12.80;99.90
7216;DHT22;3649;48.798;9.798;2022-11-06T17:56:55;12.90;99.90
7216;DHT22;3649;48.798;9.798;2022-11-06T17:59:22;12.80;99.90
7216;DHT22;3649;48.798;9.798;2022-11-06T18:01:50;12.80;99.90
7216;DHT22;3649;48.798;9.798;2022-11-06T18:04:19;12.90;99.90
7216;DHT22;3649;48.798;9.798;2022-11-06T18:06:47;12.90;99.90
7216;DHT22;3649;48.798;9.798;2022-11-06T18:09:15;13.80;99.90
7216;DHT22;3649;48.798;9.798;2022-11-06T18:11:42;12.90;99.90
7216;DHT22;3649;48.798;9.798;2022-11-06T18:14:09;12.80;99.90
7216;DHT22;3649;48.798;9.798;2022-11-06T18:16:39;12.80;99.90
7216;DHT22;3649;48.798;9.798;2022-11-06T18:19:12;12.90;99.90
7216;DHT22;3649;48.798;9.798;2022-11-06T18:21:41;13.10;99.90
7216;DHT22;3649;48.798;9.798;2022-11-06T18:24:08;13.00;99.90
7216;DHT22;3649;48.798;9.798;2022-11-06T18:26:35;13.40;99.90
7216;DHT22;3649;48.798;9.798;2022-11-06T18:29:06;12.90;99.90
7216;DHT22;3649;48.798;9.798;2022-11-06T18:31:34;12.80;99.90
7216;DHT22;3649;48.798;9.798;2022-11-06T18:34:01;12.80;99.90
7216;DHT22;3649;48.798;9.798;2022-11-06T18:36:31;13.10;99.90
7216;DHT22;3649;48.798;9.798;2022-11-06T18:38:58;12.90;99.90
7216;DHT22;3649;48.798;9.798;2022-11-06T18:41:24;12.80;99.90
7216;DHT22;3649;48.798;9.798;2022-11-06T18:44:00;13.00;99.90
7216;DHT22;3649;48.798;9.798;2022-11-06T18:46:27;12.90;99.90
7216;DHT22;3649;48.798;9.798;2022-11-06T18:48:56;12.90;99.90
7216;DHT22;3649;48.798;9.798;2022-11-06T18:51:25;13.00;99.90
7216;DHT22;3649;48.798;9.798;2022-11-06T18:54:03;12.90;99.90
7216;DHT22;3649;48.798;9.798;2022-11-06T18:56:31;12.80;99.90
7216;DHT22;3649;48.798;9.798;2022-11-06T18:58:59;12.70;99.90
7216;DHT22;3649;48.798;9.798;2022-11-06T19:01:26;12.70;99.90
7216;DHT22;3649;48.798;9.798;2022-11-06T19:03:54;13.10;99.90
7216;DHT22;3649;48.798;9.798;2022-11-06T19:06:21;12.70;99.90
7216;DHT22;3649;48.798;9.798;2022-11-06T19:08:48;12.70;99.90
7216;DHT22;3649;48.798;9.798;2022-11-06T19:11:16;12.60;99.90
7216;DHT22;3649;48.798;9.798;2022-11-06T19:13:44;12.70;99.90
7216;DHT22;3649;48.798;9.798;2022-11-06T19:16:15;12.60;99.90
7216;DHT22;3649;48.798;9.798;2022-11-06T19:18:45;12.60;99.90
7216;DHT22;3649;48.798;9.798;2022-11-06T19:21:14;12.60;99.90
7216;DHT22;3649;48.798;9.798;2022-11-06T19:23:42;12.60;99.90
7216;DHT22;3649;48.798;9.798;2022-11-06T19:26:15;13.70;99.90
7216;DHT22;3649;48.798;9.798;2022-11-06T19:28:56;12.60;99.90
7216;DHT22;3649;48.798;9.798;2022-11-06T19:31:24;12.50;99.90